Pagrindinis puslapis
METAR-TAF:

METAR-TAF

Oro uostai :

Turaif, Saudo Arabija

platuma: 31-41N, ilguma: 038-44E, Aukštis: 813 m

Dabartinis oras

Ataskaita buvo paskelbta 53 minutes, ne 03:00 UTC
Vėjas 4 kt iš Vakarų/Šiaurės Vakarų
Temperatūra 24°C
Drėgmė 38%
Slėgis 1011 hPa
Matomumas 10 km arba daugiau
nėra debesų žemiau 1500 m ir nėra kamuolinių lietaus debesų

METAR: OETR 160300Z 30004KT CAVOK 24/09 Q1011 NOSIG

Laikas: 06:53 (03:53 UTC)

Prognozė

Ataskaita buvo paskelbta 4 valandos ir 53 minutes, ne 23:00 UTC
Prognozė galioja nuo 16 metu 00 UTC su 17 metu 06 UTC
Vėjas 6 kt iš Šiaurės
Matomumas 10 km arba daugiau
nėra debesų žemiau 1500 m ir nėra kamuolinių lietaus debesų
Tapsmas
nuo 16 metu 06 UTC su 16 metu 08 UTC
Vėjas 10 kt iš Pietų
Tapsmas
nuo 16 metu 12 UTC su 16 metu 14 UTC
Vėjas 10 kt iš Vakarų

TAF: OETR 152300Z 1600/1706 35006KT CAVOK BECMG 1606/1608 18010KT BECMG 1612/1614 27010KT

Orai ataskaitas ir orų prognozės (METAR, TAF).

turimą stotys yra geltonos ir raudonos taškus žemėlapyje.

Perkelti pele per norėdami pamatyti stoties vardą.

Tada spustelėkite, norėdami matyti oro stebėjimo ir prognozės.

Norėdami pakeisti žemėlapį: spustelėkite ant žalios mygtukų su juodo kryžiaus žemyn,; žalią mygtuką su brūkšneliu, jei norite nutolinti; arba žalių rodyklių gretimoms žemėlapius.


METAR-TAF: